Time;durP1;ratioP1;P1;durP2;ratioP2;P2;SDS_P1;SDS_P2;PMS_P1;PMS_P2;Temp;Humidity;BMP_temperature;BMP_pressure;BME280_temperature;BME280_humidity;BME280_pressure;Samples;Min_cycle;Max_cycle;Signal;HPM_P1;HPM_P2
2022/12/28 00:02:12;;;;;;;12.75;5.50;;;1.80;99.90;;;;;;5070354;28;20474;-60
2022/12/28 00:04:39;;;;;;;14.05;5.93;;;1.80;99.90;;;;;;5071586;28;20413;-60
2022/12/28 00:07:05;;;;;;;9.48;5.18;;;1.70;99.90;;;;;;5068385;28;20070;-60
2022/12/28 00:09:32;;;;;;;11.15;5.65;;;1.80;99.90;;;;;;5070592;28;20078;-60
2022/12/28 00:11:59;;;;;;;9.18;5.50;;;1.80;99.90;;;;;;5071377;28;20075;-60
2022/12/28 00:14:25;;;;;;;7.93;5.28;;;1.70;99.90;;;;;;5071652;28;20493;-60
2022/12/28 00:16:52;;;;;;;8.68;4.20;;;1.70;99.90;;;;;;5071202;28;20051;-60
2022/12/28 00:19:19;;;;;;;10.98;5.43;;;1.60;99.90;;;;;;5070189;28;20106;-61
2022/12/28 00:21:46;;;;;;;9.95;4.72;;;1.60;99.90;;;;;;5071289;28;20497;-58
2022/12/28 00:24:23;;;;;;;8.57;4.22;;;1.50;99.90;;;;;;5070171;28;20098;-60
2022/12/28 00:26:50;;;;;;;;;;;1.50;99.90;;;;;;5072004;28;20396;-60
2022/12/28 00:29:17;;;;;;;9.63;5.10;;;1.50;99.90;;;;;;5052485;28;20266;-60
2022/12/28 00:31:44;;;;;;;11.73;5.80;;;1.50;99.90;;;;;;5053107;28;20051;-60
2022/12/28 00:34:11;;;;;;;;;;;1.60;99.90;;;;;;5069940;28;20036;-60
2022/12/28 00:36:40;;;;;;;11.65;5.55;;;1.70;99.90;;;;;;5070320;28;19924;-60
2022/12/28 00:39:28;;;;;;;9.20;5.35;;;1.70;99.90;;;;;;5067612;28;20040;-60
2022/12/28 00:41:54;;;;;;;11.80;6.10;;;1.70;99.90;;;;;;5070966;28;20052;-60
2022/12/28 00:44:21;;;;;;;7.10;4.18;;;1.80;99.90;;;;;;5069060;28;20137;-60
2022/12/28 00:46:48;;;;;;;9.48;5.32;;;1.80;99.90;;;;;;5070711;28;20044;-60
2022/12/28 00:49:17;;;;;;;12.77;6.47;;;1.80;99.90;;;;;;5065509;28;20033;-60
2022/12/28 00:51:43;;;;;;;16.48;6.82;;;1.90;99.90;;;;;;5049713;28;20033;-60
2022/12/28 00:54:10;;;;;;;13.95;6.15;;;2.00;99.90;;;;;;5069270;28;20555;-60
2022/12/28 00:56:40;;;;;;;12.68;6.53;;;2.10;99.90;;;;;;5070043;28;20048;-60
2022/12/28 00:59:07;;;;;;;13.02;6.32;;;2.10;99.90;;;;;;5069300;28;20451;-60
2022/12/28 01:01:35;;;;;;;12.32;6.28;;;2.20;99.90;;;;;;5070262;28;20102;-60
2022/12/28 01:04:02;;;;;;;9.52;5.53;;;2.20;99.90;;;;;;5069436;28;20435;-60
2022/12/28 01:06:29;;;;;;;8.00;4.82;;;2.30;99.90;;;;;;5070934;28;20110;-60
2022/12/28 01:08:56;;;;;;;11.25;4.57;;;2.20;99.90;;;;;;5070098;28;20519;-60
2022/12/28 01:11:28;;;;;;;10.05;5.18;;;2.20;99.90;;;;;;5070052;28;20063;-60
2022/12/28 01:13:58;;;;;;;9.65;4.95;;;2.20;99.90;;;;;;5070945;28;20043;-60
2022/12/28 01:16:31;;;;;;;10.65;5.70;;;2.20;99.90;;;;;;5053131;28;20048;-60
2022/12/28 01:19:00;;;;;;;9.90;5.47;;;2.20;99.90;;;;;;5069724;28;20044;-60
2022/12/28 01:21:29;;;;;;;13.48;5.85;;;2.20;99.90;;;;;;5070345;28;20048;-60
2022/12/28 01:23:59;;;;;;;11.20;6.15;;;2.30;99.90;;;;;;5069250;28;20048;-60
2022/12/28 01:26:27;;;;;;;17.77;5.45;;;2.30;99.90;;;;;;5070655;28;20074;-60
2022/12/28 01:28:54;;;;;;;8.35;5.15;;;2.30;99.90;;;;;;5051807;28;20044;-60
2022/12/28 01:31:21;;;;;;;;;;;2.30;99.90;;;;;;5070631;28;20040;-60
2022/12/28 01:33:49;;;;;;;11.15;6.47;;;2.30;99.90;;;;;;5058804;28;19921;-60
2022/12/28 01:36:17;;;;;;;11.30;5.07;;;2.30;99.90;;;;;;5070836;28;20098;-60
2022/12/28 01:38:45;;;;;;;7.75;4.40;;;2.30;99.90;;;;;;5070346;28;20069;-60
2022/12/28 01:41:15;;;;;;;6.90;4.28;;;2.10;99.90;;;;;;5051284;28;20086;-60
2022/12/28 01:44:03;;;;;;;11.82;4.93;;;2.10;99.90;;;;;;5052629;28;20131;-60
2022/12/28 01:46:48;;;;;;;11.43;5.20;;;2.00;99.90;;;;;;5049249;28;20137;-60
2022/12/28 01:49:24;;;;;;;8.38;4.85;;;2.00;99.90;;;;;;5069236;28;20040;-60
2022/12/28 01:52:18;;;;;;;7.10;4.13;;;2.00;99.90;;;;;;5070086;28;20112;-60
2022/12/28 01:54:47;;;;;;;6.82;3.55;;;2.00;99.90;;;;;;5071756;28;20040;-60
2022/12/28 01:57:16;;;;;;;7.03;4.35;;;1.90;99.90;;;;;;5074196;28;20425;-60
2022/12/28 01:59:49;;;;;;;6.95;4.35;;;1.90;99.90;;;;;;5072582;28;20094;-60
2022/12/28 02:02:19;;;;;;;7.18;4.35;;;1.80;99.90;;;;;;5055719;28;20439;-60
2022/12/28 02:04:47;;;;;;;10.27;4.68;;;1.80;99.90;;;;;;5072935;28;20049;-60
2022/12/28 02:07:18;;;;;;;;;;;1.80;99.90;;;;;;5072352;28;20071;-60
2022/12/28 02:09:45;;;;;;;6.15;4.25;;;1.80;99.90;;;;;;5069978;28;20430;-60
2022/12/28 02:12:32;;;;;;;10.05;4.75;;;1.90;99.90;;;;;;5071449;28;20051;-60
2022/12/28 02:15:00;;;;;;;;;;;1.90;99.90;;;;;;5071556;28;20051;-60
2022/12/28 02:17:28;;;;;;;;;;;1.90;99.90;;;;;;5074391;28;19966;-60
2022/12/28 02:19:55;;;;;;;9.13;5.28;;;2.00;99.90;;;;;;5072401;28;19946;-60
2022/12/28 02:22:40;;;;;;;9.00;5.18;;;2.00;99.90;;;;;;5072251;28;20098;-60
2022/12/28 02:25:32;;;;;;;9.23;5.65;;;2.10;99.90;;;;;;5055408;28;20044;-60
2022/12/28 02:28:25;;;;;;;13.80;5.65;;;2.10;99.90;;;;;;5071668;28;20465;-60
2022/12/28 02:31:02;;;;;;;10.65;5.82;;;2.10;99.90;;;;;;5053837;28;20106;-60
2022/12/28 02:33:46;;;;;;;10.88;5.90;;;2.20;99.90;;;;;;5073006;28;20106;-60
2022/12/28 02:36:18;;;;;;;8.43;4.43;;;2.20;99.90;;;;;;5071235;28;20037;-60
2022/12/28 02:38:52;;;;;;;9.88;5.15;;;2.20;99.90;;;;;;5072344;28;20040;-58
2022/12/28 02:41:23;;;;;;;7.97;4.65;;;2.10;99.90;;;;;;5072639;28;20106;-60
2022/12/28 02:43:54;;;;;;;9.85;4.95;;;2.10;99.90;;;;;;5053708;28;20052;-60
2022/12/28 02:52:42;;;;;;;8.43;4.80;;;2.10;99.90;;;;;;5090601;28;20832;-65
2022/12/28 02:56:08;;;;;;;9.23;5.38;;;2.20;99.90;;;;;;5117294;27;20043;-65
2022/12/28 02:58:59;;;;;;;9.27;4.28;;;2.20;99.90;;;;;;5123608;27;20050;-65
2022/12/28 03:01:42;;;;;;;8.55;4.10;;;2.20;99.90;;;;;;5132594;27;20051;-65
2022/12/28 03:04:44;;;;;;;7.32;4.00;;;2.20;99.90;;;;;;5114282;27;20043;-65
2022/12/28 03:10:25;;;;;;;7.00;4.07;;;2.30;99.90;;;;;;5117119;27;20042;-64
2022/12/28 03:16:09;;;;;;;9.55;5.40;;;2.30;99.90;;;;;;5132209;27;20066;-65
2022/12/28 03:32:59;;;;;;;18.65;9.07;;;2.30;99.90;;;;;;5131780;27;20134;-65
2022/12/28 03:35:39;;;;;;;18.02;7.97;;;2.30;99.90;;;;;;5110234;27;20039;-65
2022/12/28 03:38:11;;;;;;;14.98;8.10;;;2.40;99.90;;;;;;5115366;27;20047;-65
2022/12/28 03:40:48;;;;;;;18.83;8.18;;;2.30;99.90;;;;;;5114511;27;20047;-65
2022/12/28 03:43:41;;;;;;;14.40;7.85;;;2.30;99.90;;;;;;5113941;27;20043;-65
2022/12/28 03:46:36;;;;;;;16.73;9.10;;;2.30;99.90;;;;;;5127817;27;20070;-65
2022/12/28 03:49:03;;;;;;;16.52;8.95;;;2.30;99.90;;;;;;5133650;27;20122;-65
2022/12/28 03:51:32;;;;;;;19.30;9.23;;;2.30;99.90;;;;;;5113418;27;20744;-65
2022/12/28 03:54:05;;;;;;;16.95;8.65;;;2.40;99.90;;;;;;5132209;27;20057;-65
2022/12/28 03:56:32;;;;;;;15.43;7.97;;;2.40;99.90;;;;;;5114580;27;20046;-64
2022/12/28 03:59:01;;;;;;;17.42;9.35;;;2.40;99.90;;;;;;5110995;27;20225;-65
2022/12/28 04:01:37;;;;;;;18.60;9.50;;;2.30;99.90;;;;;;5114078;27;20043;-65
2022/12/28 04:04:04;;;;;;;16.35;8.35;;;2.30;99.90;;;;;;5113545;27;20043;-65
2022/12/28 04:06:31;;;;;;;22.67;10.02;;;2.30;99.90;;;;;;5114517;27;20043;-65
2022/12/28 04:08:58;;;;;;;17.85;8.30;;;2.30;99.90;;;;;;5114035;27;20125;-65
2022/12/28 04:11:28;;;;;;;15.63;8.20;;;2.30;99.90;;;;;;5113275;27;20044;-65
2022/12/28 04:13:56;;;;;;;14.60;6.63;;;2.30;99.90;;;;;;5113010;27;20134;-65
2022/12/28 04:16:25;;;;;;;12.15;6.75;;;2.30;99.90;;;;;;5114427;27;20047;-65
2022/12/28 04:18:52;;;;;;;10.75;5.35;;;2.30;99.90;;;;;;5114193;27;20129;-65
2022/12/28 04:21:19;;;;;;;;;;;2.20;99.90;;;;;;5110715;28;20522;-65
2022/12/28 04:23:46;;;;;;;13.00;5.90;;;2.20;99.90;;;;;;5098673;27;20010;-65
2022/12/28 04:26:17;;;;;;;12.63;5.95;;;2.20;99.90;;;;;;5114273;27;20403;-65
2022/12/28 04:28:45;;;;;;;11.75;5.72;;;2.30;99.90;;;;;;5132618;27;20525;-65
2022/12/28 04:31:17;;;;;;;11.55;5.90;;;2.20;99.90;;;;;;5132750;27;20051;-64
2022/12/28 04:33:52;;;;;;;10.80;6.05;;;2.20;99.90;;;;;;5113219;27;20031;-65
2022/12/28 04:36:18;;;;;;;12.02;4.38;;;2.10;99.90;;;;;;5114272;27;20043;-65
2022/12/28 04:38:48;;;;;;;8.95;5.22;;;2.10;99.90;;;;;;5113069;27;20444;-65
2022/12/28 04:41:15;;;;;;;6.28;3.72;;;2.10;99.90;;;;;;5132453;27;20064;-65
2022/12/28 04:43:42;;;;;;;9.05;5.10;;;2.10;99.90;;;;;;5131941;27;20133;-65
2022/12/28 04:46:13;;;;;;;8.40;4.70;;;2.10;99.90;;;;;;5132422;27;20043;-65
2022/12/28 04:48:41;;;;;;;10.98;5.63;;;2.20;99.90;;;;;;5129869;27;20043;-65
2022/12/28 04:51:17;;;;;;;13.05;5.78;;;2.10;99.90;;;;;;5132011;27;20065;-65
2022/12/28 04:53:44;;;;;;;13.00;6.50;;;2.20;99.90;;;;;;5132022;27;20084;-65
2022/12/28 04:56:12;;;;;;;11.00;6.28;;;2.20;99.90;;;;;;5132632;27;20537;-65
2022/12/28 04:58:39;;;;;;;12.63;6.38;;;2.10;99.90;;;;;;5131132;27;20172;-65
2022/12/28 05:01:11;;;;;;;13.40;6.60;;;2.10;99.90;;;;;;5132330;27;20114;-65
2022/12/28 05:03:40;;;;;;;12.20;6.50;;;2.10;99.90;;;;;;5130355;27;20115;-65
2022/12/28 05:06:10;;;;;;;14.05;7.30;;;2.20;99.90;;;;;;5132085;27;20092;-65
2022/12/28 05:08:38;;;;;;;13.02;6.32;;;2.10;99.90;;;;;;5131480;27;20084;-65
2022/12/28 05:11:07;;;;;;;10.48;5.88;;;2.10;99.90;;;;;;5131662;27;20039;-65
2022/12/28 05:13:34;;;;;;;10.13;5.38;;;2.10;99.90;;;;;;5130946;28;20070;-65
2022/12/28 05:16:06;;;;;;;9.02;4.82;;;2.00;99.90;;;;;;5132286;28;20089;-65
2022/12/28 05:18:33;;;;;;;13.18;6.78;;;2.00;99.90;;;;;;5131044;28;20134;-65
2022/12/28 05:21:04;;;;;;;12.90;6.97;;;2.00;99.90;;;;;;5132185;28;20503;-65
2022/12/28 05:23:32;;;;;;;15.75;7.45;;;2.00;99.90;;;;;;5131486;28;20471;-65
2022/12/28 05:25:59;;;;;;;13.93;7.57;;;1.90;99.90;;;;;;5132105;28;20084;-65
2022/12/28 05:28:26;;;;;;;14.07;6.80;;;2.00;99.90;;;;;;5131276;27;20127;-65
2022/12/28 05:31:02;;;;;;;16.30;7.72;;;2.00;99.90;;;;;;5130828;27;20442;-65
2022/12/28 05:33:31;;;;;;;17.25;8.40;;;2.00;99.90;;;;;;5135675;27;20043;-65
2022/12/28 05:36:05;;;;;;;17.92;8.25;;;2.10;99.90;;;;;;5128099;27;20104;-65
2022/12/28 05:38:32;;;;;;;21.77;8.73;;;2.00;99.90;;;;;;5125323;27;20100;-65
2022/12/28 05:41:14;;;;;;;16.98;8.88;;;2.00;99.90;;;;;;5133833;27;20514;-65
2022/12/28 05:43:42;;;;;;;18.35;9.68;;;2.00;99.90;;;;;;5127806;27;20043;-65
2022/12/28 05:46:15;;;;;;;18.65;9.30;;;2.00;99.90;;;;;;5124668;27;20560;-65
2022/12/28 05:48:42;;;;;;;18.98;9.23;;;2.00;99.90;;;;;;5128547;27;20109;-65
2022/12/28 05:51:12;;;;;;;22.38;10.00;;;2.00;99.90;;;;;;5134382;27;20061;-65
2022/12/28 05:53:40;;;;;;;19.50;9.68;;;1.90;99.90;;;;;;5133837;27;20039;-65
2022/12/28 05:56:10;;;;;;;20.65;9.40;;;1.90;99.90;;;;;;5135488;27;20395;-65
2022/12/28 05:58:41;;;;;;;20.38;9.52;;;1.90;99.90;;;;;;5134893;27;20395;-65
2022/12/28 06:01:15;;;;;;;17.20;8.52;;;1.90;99.90;;;;;;5127295;27;20039;-65
2022/12/28 06:03:44;;;;;;;21.75;9.90;;;1.80;99.90;;;;;;5131051;27;20551;-65
2022/12/28 06:06:16;;;;;;;23.73;10.30;;;1.90;99.90;;;;;;5134373;27;20092;-65
2022/12/28 06:08:43;;;;;;;23.80;10.15;;;1.90;99.90;;;;;;5132648;27;20543;-65
2022/12/28 06:11:15;;;;;;;23.35;10.05;;;1.90;99.90;;;;;;5134657;27;20031;-65
2022/12/28 06:13:42;;;;;;;24.98;10.82;;;1.90;99.90;;;;;;5133667;27;20449;-65
2022/12/28 06:16:13;;;;;;;24.38;10.77;;;2.00;99.90;;;;;;5135566;27;20031;-65
2022/12/28 06:18:40;;;;;;;22.20;10.95;;;1.90;99.90;;;;;;5131803;27;20840;-65
2022/12/28 06:21:13;;;;;;;23.42;11.18;;;1.90;99.90;;;;;;5129581;27;20103;-65
2022/12/28 06:23:40;;;;;;;20.08;10.40;;;1.90;99.90;;;;;;5133656;27;20079;-65
2022/12/28 06:26:07;;;;;;;;;;;1.90;99.90;;;;;;5134957;27;20043;-65
2022/12/28 06:28:37;;;;;;;22.80;9.95;;;1.90;99.90;;;;;;5130855;27;19936;-65
2022/12/28 06:31:11;;;;;;;21.05;10.23;;;1.90;99.90;;;;;;5120755;27;20058;-65
2022/12/28 06:33:38;;;;;;;24.30;10.13;;;2.00;99.90;;;;;;5133788;27;20445;-65
2022/12/28 06:36:11;;;;;;;17.85;9.05;;;2.00;99.90;;;;;;5133802;27;20047;-65
2022/12/28 06:38:46;;;;;;;16.20;7.20;;;2.00;99.90;;;;;;5132873;27;20050;-65
2022/12/28 06:41:13;;;;;;;15.93;7.18;;;2.00;99.90;;;;;;5134378;27;20051;-65
2022/12/28 06:43:42;;;;;;;19.83;8.43;;;1.90;99.90;;;;;;5131267;27;20096;-65
2022/12/28 06:46:10;;;;;;;18.65;8.27;;;1.90;99.90;;;;;;5134660;27;20063;-65
2022/12/28 06:48:37;;;;;;;16.65;8.77;;;1.90;99.90;;;;;;5133113;27;20148;-65
2022/12/28 06:51:11;;;;;;;16.98;8.27;;;1.90;99.90;;;;;;5134511;27;20095;-65
2022/12/28 06:53:38;;;;;;;19.10;9.10;;;2.00;99.90;;;;;;5131258;27;20058;-65
2022/12/28 06:56:27;;;;;;;17.80;8.95;;;2.00;99.90;;;;;;5134437;27;20063;-65
2022/12/28 06:58:54;;;;;;;16.38;8.60;;;2.00;99.90;;;;;;5134442;27;20047;-65
2022/12/28 07:01:34;;;;;;;17.63;9.00;;;1.90;99.90;;;;;;5134027;27;20050;-65
2022/12/28 07:04:03;;;;;;;19.80;9.00;;;1.90;99.90;;;;;;5130812;27;20049;-65
2022/12/28 07:06:34;;;;;;;20.33;9.85;;;2.00;99.90;;;;;;5134135;27;20126;-65
2022/12/28 07:09:04;;;;;;;21.27;10.20;;;2.00;99.90;;;;;;5132093;27;20039;-65
2022/12/28 07:11:31;;;;;;;18.65;8.45;;;2.00;99.90;;;;;;5133166;27;20062;-65
2022/12/28 07:13:58;;;;;;;19.85;9.00;;;1.90;99.90;;;;;;5133466;27;20070;-65
2022/12/28 07:16:26;;;;;;;16.98;8.75;;;1.90;99.90;;;;;;5133304;27;20373;-65
2022/12/28 07:18:54;;;;;;;16.63;9.05;;;1.90;99.90;;;;;;5132262;27;20062;-65
2022/12/28 07:21:32;;;;;;;19.70;9.32;;;2.00;99.90;;;;;;5133693;27;20043;-65
2022/12/28 07:23:58;;;;;;;17.90;9.43;;;1.90;99.90;;;;;;5133613;27;20088;-65
2022/12/28 07:26:28;;;;;;;14.63;6.75;;;2.00;99.90;;;;;;5133775;27;20495;-65
2022/12/28 07:28:57;;;;;;;18.05;9.23;;;2.00;99.90;;;;;;5132365;27;20078;-65
2022/12/28 07:31:26;;;;;;;20.15;8.77;;;2.00;99.90;;;;;;5133301;27;20088;-65
2022/12/28 07:33:54;;;;;;;16.60;8.45;;;2.10;99.90;;;;;;5133138;27;20135;-65
2022/12/28 07:36:22;;;;;;;18.58;8.93;;;2.00;99.90;;;;;;5132912;27;20115;-65
2022/12/28 07:38:49;;;;;;;16.48;7.90;;;2.10;99.90;;;;;;5131950;27;20054;-65
2022/12/28 07:41:25;;;;;;;14.45;7.38;;;2.10;99.90;;;;;;5133248;27;20084;-65
2022/12/28 07:43:52;;;;;;;13.23;6.40;;;2.10;99.90;;;;;;5124733;27;20039;-65
2022/12/28 07:46:32;;;;;;;12.15;7.15;;;2.20;99.90;;;;;;5121488;27;20116;-65
2022/12/28 07:48:59;;;;;;;15.05;7.22;;;2.20;99.90;;;;;;5111705;28;20110;-65
2022/12/28 07:51:29;;;;;;;16.05;8.40;;;2.10;99.90;;;;;;5110459;28;20056;-65
2022/12/28 07:53:57;;;;;;;21.77;10.50;;;2.20;99.90;;;;;;5123660;27;20035;-65
2022/12/28 07:56:25;;;;;;;23.15;10.73;;;2.20;99.90;;;;;;5133312;27;20047;-65
2022/12/28 07:58:58;;;;;;;17.55;9.73;;;2.20;99.90;;;;;;5131898;27;20039;-65
2022/12/28 08:01:27;;;;;;;24.55;11.27;;;2.20;99.90;;;;;;5126731;27;20545;-65
2022/12/28 08:03:57;;;;;;;20.83;10.45;;;2.20;99.90;;;;;;5131036;27;20043;-65
2022/12/28 08:06:25;;;;;;;20.38;10.60;;;2.20;99.90;;;;;;5129528;27;20043;-65
2022/12/28 08:08:54;;;;;;;21.13;11.23;;;2.30;99.90;;;;;;5132278;27;20084;-65
2022/12/28 08:11:23;;;;;;;21.95;10.50;;;2.20;99.90;;;;;;5132434;27;20047;-65
2022/12/28 08:13:52;;;;;;;17.95;9.10;;;2.30;99.90;;;;;;5130523;27;20039;-65
2022/12/28 08:16:20;;;;;;;19.27;8.85;;;2.30;99.90;;;;;;5132535;27;20074;-65
2022/12/28 08:18:48;;;;;;;18.90;8.63;;;2.30;99.90;;;;;;5093351;28;20416;-65
2022/12/28 08:21:17;;;;;;;18.42;9.10;;;2.30;99.90;;;;;;5121224;27;20437;-65
2022/12/28 08:23:45;;;;;;;20.10;9.07;;;2.30;99.90;;;;;;5132339;27;20091;-65
2022/12/28 08:26:18;;;;;;;20.27;9.63;;;2.30;99.90;;;;;;5131866;27;20055;-65
2022/12/28 08:28:46;;;;;;;19.70;9.70;;;2.40;99.90;;;;;;5130408;27;20043;-65
2022/12/28 08:31:17;;;;;;;19.50;8.95;;;2.40;99.90;;;;;;5129832;27;20494;-65
2022/12/28 08:33:44;;;;;;;21.48;10.77;;;2.40;99.90;;;;;;5112247;28;20043;-65
2022/12/28 08:36:11;;;;;;;16.85;8.70;;;2.40;99.90;;;;;;5111295;28;20081;-65
2022/12/28 08:38:40;;;;;;;24.23;9.70;;;2.40;99.90;;;;;;5111977;28;20550;-65
2022/12/28 08:41:10;;;;;;;19.30;8.90;;;2.40;99.90;;;;;;5128252;27;20035;-65
2022/12/28 08:43:37;;;;;;;16.67;8.88;;;2.40;99.90;;;;;;5121152;27;20051;-65
2022/12/28 08:46:10;;;;;;;20.73;10.18;;;2.50;99.90;;;;;;5125568;27;20096;-65
2022/12/28 08:48:37;;;;;;;20.95;9.93;;;2.60;99.90;;;;;;5131963;27;20394;-65
2022/12/28 08:51:09;;;;;;;21.67;10.15;;;2.70;99.90;;;;;;5120996;22;20045;-59
2022/12/28 08:53:37;;;;;;;22.77;10.70;;;2.80;99.90;;;;;;5086817;28;20044;-60
2022/12/28 08:56:04;;;;;;;;;;;2.90;99.90;;;;;;5090452;28;20035;-60
2022/12/28 08:58:33;;;;;;;22.17;10.00;;;3.00;99.90;;;;;;5084683;28;20465;-60
2022/12/28 09:01:07;;;;;;;17.90;9.07;;;3.10;99.90;;;;;;5092867;28;20569;-60
2022/12/28 09:03:36;;;;;;;21.30;10.68;;;3.10;99.90;;;;;;5089386;28;20054;-58
2022/12/28 09:06:04;;;;;;;19.55;10.20;;;3.20;99.90;;;;;;5089504;28;20054;-58
2022/12/28 09:08:31;;;;;;;21.17;10.93;;;3.20;99.90;;;;;;5091287;28;20439;-58
2022/12/28 09:11:00;;;;;;;17.75;9.55;;;3.30;99.90;;;;;;5081671;28;20038;-61
2022/12/28 09:13:27;;;;;;;17.52;8.10;;;3.30;99.90;;;;;;5082576;28;20048;-59
2022/12/28 09:15:59;;;;;;;13.07;7.68;;;3.30;99.90;;;;;;5091551;28;20450;-58
2022/12/28 09:18:26;;;;;;;11.15;6.50;;;3.40;99.90;;;;;;5086145;28;20052;-58
2022/12/28 09:20:53;;;;;;;12.13;5.50;;;3.40;99.90;;;;;;5089178;28;20101;-59
2022/12/28 09:23:19;;;;;;;10.90;6.32;;;3.40;99.90;;;;;;5064293;28;20402;-59
2022/12/28 09:25:46;;;;;;;9.38;5.55;;;3.40;99.90;;;;;;5065419;28;20516;-59
2022/12/28 09:28:13;;;;;;;14.35;7.53;;;3.30;99.90;;;;;;5050568;28;20091;-60
2022/12/28 09:30:40;;;;;;;13.40;7.25;;;3.30;99.90;;;;;;5069207;28;20040;-58
2022/12/28 09:35:57;;;;;;;15.27;7.78;;;3.30;99.90;;;;;;5090418;28;20083;-60
2022/12/28 09:38:24;;;;;;;13.73;7.07;;;3.20;99.90;;;;;;5078090;28;20058;-60
2022/12/28 09:40:51;;;;;;;16.73;8.10;;;3.20;99.90;;;;;;5090212;28;20469;-59
2022/12/28 09:43:18;;;;;;;13.77;8.00;;;3.20;99.90;;;;;;5089664;28;20085;-59
2022/12/28 09:45:46;;;;;;;12.98;7.10;;;3.20;99.90;;;;;;5090654;28;20039;-58
2022/12/28 09:48:18;;;;;;;14.23;7.45;;;3.20;99.90;;;;;;5081030;28;20381;-59
2022/12/28 09:50:46;;;;;;;15.40;7.75;;;3.20;99.90;;;;;;5082229;28;20032;-60
2022/12/28 09:53:21;;;;;;;;;;;3.30;99.90;;;;;;5090937;28;20492;-58
2022/12/28 09:56:16;;;;;;;13.30;7.30;;;3.30;99.90;;;;;;5077473;28;19927;-60
2022/12/28 09:58:43;;;;;;;12.27;6.65;;;3.30;99.90;;;;;;5090715;28;20052;-60
2022/12/28 10:01:14;;;;;;;14.13;6.88;;;3.30;99.90;;;;;;5090107;28;20050;-60
2022/12/28 10:03:44;;;;;;;13.55;6.55;;;3.40;99.90;;;;;;5073953;28;20138;-60
2022/12/28 10:06:12;;;;;;;15.38;6.93;;;3.30;99.90;;;;;;5068363;28;20067;-60
2022/12/28 10:08:47;;;;;;;14.52;6.82;;;3.30;99.90;;;;;;5069884;28;20117;-60
2022/12/28 10:11:21;;;;;;;12.90;6.47;;;3.30;99.90;;;;;;5065795;28;20040;-60
2022/12/28 10:13:54;;;;;;;12.52;6.85;;;3.30;99.90;;;;;;5062117;28;20092;-60
2022/12/28 10:16:24;;;;;;;12.32;6.97;;;3.20;99.90;;;;;;5072473;28;20052;-60
2022/12/28 10:18:51;;;;;;;10.80;6.50;;;3.10;99.90;;;;;;5069893;28;20053;-60
2022/12/28 10:21:21;;;;;;;10.25;5.50;;;3.00;99.90;;;;;;5086103;28;20043;-60
2022/12/28 10:23:57;;;;;;;19.38;8.50;;;3.10;99.90;;;;;;5093595;28;20044;-60
2022/12/28 10:26:45;;;;;;;14.95;8.00;;;3.10;99.90;;;;;;5094113;28;20055;-60
2022/12/28 10:29:21;;;;;;;23.33;7.95;;;3.00;99.90;;;;;;5080817;28;20032;-60
2022/12/28 10:32:07;;;;;;;16.00;7.45;;;3.00;99.90;;;;;;5093381;28;20048;-60
2022/12/28 10:34:35;;;;;;;13.20;7.13;;;3.00;99.90;;;;;;5094059;28;20097;-60
2022/12/28 10:37:16;;;;;;;20.23;8.43;;;3.10;99.90;;;;;;5083889;28;20082;-60
2022/12/28 10:39:56;;;;;;;20.42;9.48;;;3.30;99.90;;;;;;5073895;28;20528;-59
2022/12/28 10:42:28;;;;;;;18.15;9.48;;;3.30;99.90;;;;;;5071074;28;20063;-60
2022/12/28 10:45:02;;;;;;;16.08;8.18;;;3.40;99.90;;;;;;5076475;28;20444;-59
2022/12/28 10:47:34;;;;;;;13.85;7.72;;;3.50;99.90;;;;;;5091005;28;20040;-60
2022/12/28 10:50:02;;;;;;;16.33;8.10;;;3.60;99.90;;;;;;5093678;28;20070;-60
2022/12/28 10:52:57;;;;;;;10.32;5.35;;;3.60;99.90;;;;;;5070411;28;20511;-60
2022/12/28 10:55:30;;;;;;;14.02;6.95;;;3.70;99.90;;;;;;5087035;28;20044;-60
2022/12/28 10:58:32;;;;;;;13.65;7.00;;;3.90;99.90;;;;;;5093298;28;20044;-60
2022/12/28 11:01:25;;;;;;;14.35;6.60;;;4.10;99.90;;;;;;5005593;28;20073;-60
2022/12/28 11:03:55;;;;;;;11.20;6.32;;;4.20;99.90;;;;;;5068651;28;20082;-60
2022/12/28 11:06:49;;;;;;;13.50;6.78;;;4.30;99.90;;;;;;5093198;28;20036;-60
2022/12/28 11:09:29;;;;;;;10.27;5.72;;;4.30;99.90;;;;;;5093183;28;20067;-60
2022/12/28 11:12:16;;;;;;;13.65;6.50;;;4.30;99.90;;;;;;5086128;28;20075;-60
2022/12/28 11:14:43;;;;;;;12.40;7.20;;;4.20;99.90;;;;;;5075702;28;20044;-60
2022/12/28 11:17:25;;;;;;;13.40;7.28;;;4.20;99.90;;;;;;5092746;28;20357;-60
2022/12/28 11:20:07;;;;;;;12.48;7.18;;;4.30;99.90;;;;;;5093212;28;20078;-60
2022/12/28 11:22:34;;;;;;;13.70;7.05;;;4.10;99.90;;;;;;5078102;28;20096;-60
2022/12/28 11:25:01;;;;;;;12.77;7.45;;;4.10;99.90;;;;;;5086683;28;20048;-60
2022/12/28 11:27:28;;;;;;;12.48;7.32;;;4.10;99.90;;;;;;5091636;28;20464;-60
2022/12/28 11:29:56;;;;;;;13.40;7.25;;;4.00;99.90;;;;;;5082178;28;20131;-59
2022/12/28 11:32:41;;;;;;;10.73;6.80;;;4.00;99.90;;;;;;5091756;28;20064;-60
2022/12/28 11:35:18;;;;;;;13.13;7.00;;;4.10;99.90;;;;;;5092627;28;20044;-60
2022/12/28 11:37:56;;;;;;;17.83;7.72;;;4.20;99.90;;;;;;5081287;28;20059;-60
2022/12/28 11:40:46;;;;;;;16.70;8.02;;;4.10;99.90;;;;;;5092829;28;20086;-60
2022/12/28 11:43:28;;;;;;;15.07;8.10;;;4.20;99.90;;;;;;5092080;28;20036;-60
2022/12/28 11:45:56;;;;;;;14.10;7.90;;;4.10;99.90;;;;;;5083139;28;20064;-60
2022/12/28 11:48:41;;;;;;;14.15;8.02;;;4.10;99.90;;;;;;5092090;28;20051;-61
2022/12/28 11:51:18;;;;;;;19.02;9.57;;;3.90;99.90;;;;;;5092143;28;20070;-60
2022/12/28 11:53:44;;;;;;;16.17;8.65;;;3.80;99.90;;;;;;5086054;28;20067;-60
2022/12/28 11:56:13;;;;;;;20.17;10.25;;;3.80;99.90;;;;;;5092478;28;20043;-60
2022/12/28 11:58:41;;;;;;;19.23;8.63;;;3.90;99.90;;;;;;5091790;28;20090;-60
2022/12/28 12:01:33;;;;;;;13.82;8.20;;;4.10;99.90;;;;;;5081057;28;20087;-60
2022/12/28 12:04:00;;;;;;;14.73;7.57;;;4.20;99.90;;;;;;5059207;28;20106;-60
2022/12/28 12:06:42;;;;;;;12.20;5.78;;;4.10;99.90;;;;;;5075715;28;20426;-60
2022/12/28 12:09:20;;;;;;;12.30;7.03;;;4.20;99.90;;;;;;5070583;28;20068;-60
2022/12/28 12:11:49;;;;;;;12.98;7.68;;;4.20;99.90;;;;;;5071632;28;20048;-60
2022/12/28 12:14:29;;;;;;;19.40;9.00;;;4.10;99.90;;;;;;5077525;28;20033;-60
2022/12/28 12:17:03;;;;;;;18.17;9.45;;;4.00;99.90;;;;;;5062418;28;20075;-60
2022/12/28 12:19:41;;;;;;;19.13;9.45;;;4.10;99.90;;;;;;5065550;28;20091;-60
2022/12/28 12:22:45;;;;;;;15.35;7.40;;;4.20;99.90;;;;;;5073654;28;20040;-60
2022/12/28 12:25:31;;;;;;;15.55;7.80;;;4.20;99.90;;;;;;5091694;28;20518;-60
2022/12/28 12:28:09;;;;;;;13.57;7.50;;;4.30;99.90;;;;;;5079889;28;20056;-60
2022/12/28 12:30:36;;;;;;;15.10;7.97;;;4.40;99.90;;;;;;5088182;28;20051;-60
2022/12/28 12:33:13;;;;;;;14.50;7.30;;;4.40;99.90;;;;;;5091028;28;20569;-60
2022/12/28 12:35:59;;;;;;;15.10;7.82;;;4.50;99.90;;;;;;5081572;28;20095;-60
2022/12/28 12:38:42;;;;;;;13.38;7.10;;;4.50;99.90;;;;;;5091614;28;20493;-60
2022/12/28 12:41:11;;;;;;;16.33;7.55;;;4.60;99.90;;;;;;5090637;28;20040;-60
2022/12/28 12:43:53;;;;;;;15.13;8.05;;;4.70;99.90;;;;;;5090584;28;20036;-60
2022/12/28 12:46:45;;;;;;;14.93;7.72;;;4.70;99.90;;;;;;5075517;28;20051;-60
2022/12/28 12:49:36;;;;;;;15.88;7.35;;;4.70;99.90;;;;;;5070594;28;20123;-60
2022/12/28 12:52:16;;;;;;;15.63;7.10;;;4.70;99.90;;;;;;5065957;28;20045;-60
2022/12/28 12:55:12;;;;;;;14.07;6.90;;;4.70;99.90;;;;;;5070404;28;20037;-60
2022/12/28 12:57:57;;;;;;;12.07;7.28;;;4.70;99.90;;;;;;5069021;28;20048;-60
2022/12/28 13:00:47;;;;;;;13.57;7.10;;;4.60;99.90;;;;;;5071507;28;20516;-60
2022/12/28 13:03:39;;;;;;;14.07;7.65;;;4.60;99.90;;;;;;5067676;28;20040;-60
2022/12/28 13:06:09;;;;;;;13.55;7.00;;;4.60;99.90;;;;;;5076389;28;20043;-60
2022/12/28 13:08:57;;;;;;;12.20;6.75;;;4.60;99.90;;;;;;5075689;28;20041;-60
2022/12/28 13:11:36;;;;;;;15.30;7.35;;;4.60;99.90;;;;;;5072557;28;20037;-60
2022/12/28 13:14:03;;;;;;;12.45;6.30;;;4.60;99.90;;;;;;5070075;28;20086;-60
2022/12/28 13:16:31;;;;;;;;;;;4.70;99.90;;;;;;5071078;28;20056;-60
2022/12/28 13:19:04;;;;;;;12.23;6.43;;;4.70;99.90;;;;;;5070951;28;19954;-60
2022/12/28 13:21:48;;;;;;;15.43;6.45;;;4.70;99.90;;;;;;5074083;28;20040;-60
2022/12/28 13:24:19;;;;;;;10.07;5.85;;;4.70;99.90;;;;;;5068067;28;20052;-60
2022/12/28 13:26:46;;;;;;;13.63;6.55;;;4.70;99.90;;;;;;5078697;28;20063;-60
2022/12/28 13:29:18;;;;;;;13.63;6.45;;;4.70;99.90;;;;;;5051446;28;20045;-60
2022/12/28 13:31:48;;;;;;;13.35;6.18;;;4.70;99.90;;;;;;5063334;28;20040;-60
2022/12/28 13:34:26;;;;;;;10.77;6.13;;;4.80;99.90;;;;;;5087100;28;20451;-60
2022/12/28 13:36:55;;;;;;;;;;;4.80;99.90;;;;;;5069414;28;20037;-60
2022/12/28 13:39:27;;;;;;;9.88;5.65;;;4.90;99.90;;;;;;5075534;28;19927;-60
2022/12/28 13:41:57;;;;;;;8.85;5.55;;;4.90;99.90;;;;;;5086947;28;20123;-61
2022/12/28 13:44:30;;;;;;;12.02;5.50;;;5.00;99.90;;;;;;5089814;28;20055;-60
2022/12/28 13:47:00;;;;;;;9.93;5.28;;;5.00;99.90;;;;;;5090403;28;20051;-60
2022/12/28 13:49:32;;;;;;;8.65;4.93;;;5.00;99.90;;;;;;5070263;28;20051;-60